sensor_id;sensor_type;location;lat;lon;timestamp;pressure;altitude;pressure_sealevel;temperature;humidity
79584;BME280;69053;57.338;18.700;2024-01-11T00:00:32;102106.28;;;6.01;61.97
79584;BME280;69053;57.338;18.700;2024-01-11T00:03:32;102105.59;;;5.99;62.00
79584;BME280;69053;57.338;18.700;2024-01-11T00:06:33;102102.88;;;5.99;61.72
79584;BME280;69053;57.338;18.700;2024-01-11T00:09:33;102105.16;;;5.94;61.72
79584;BME280;69053;57.338;18.700;2024-01-11T00:12:33;102098.41;;;6.08;61.37
79584;BME280;69053;57.338;18.700;2024-01-11T00:15:34;102108.41;;;5.70;61.89
79584;BME280;69053;57.338;18.700;2024-01-11T00:18:34;102094.06;;;5.97;61.76
79584;BME280;69053;57.338;18.700;2024-01-11T00:21:35;102100.81;;;6.11;61.18
79584;BME280;69053;57.338;18.700;2024-01-11T00:24:35;102099.88;;;6.20;60.78
79584;BME280;69053;57.338;18.700;2024-01-11T00:27:36;102098.84;;;6.31;60.83
79584;BME280;69053;57.338;18.700;2024-01-11T00:30:36;102094.81;;;6.17;60.85
79584;BME280;69053;57.338;18.700;2024-01-11T00:33:36;102098.97;;;6.30;60.48
79584;BME280;69053;57.338;18.700;2024-01-11T00:36:37;102099.69;;;6.32;60.21
79584;BME280;69053;57.338;18.700;2024-01-11T00:39:37;102093.56;;;6.30;60.24
79584;BME280;69053;57.338;18.700;2024-01-11T00:42:38;102100.59;;;6.41;60.11
79584;BME280;69053;57.338;18.700;2024-01-11T00:45:38;102090.00;;;6.47;59.59
79584;BME280;69053;57.338;18.700;2024-01-11T00:48:39;102083.97;;;6.35;59.79
79584;BME280;69053;57.338;18.700;2024-01-11T00:51:39;102092.13;;;6.53;59.50
79584;BME280;69053;57.338;18.700;2024-01-11T00:54:39;102096.81;;;6.51;59.55
79584;BME280;69053;57.338;18.700;2024-01-11T00:57:41;102087.84;;;6.51;59.31
79584;BME280;69053;57.338;18.700;2024-01-11T01:00:41;102089.16;;;6.47;59.48
79584;BME280;69053;57.338;18.700;2024-01-11T01:03:41;102090.53;;;6.51;59.37
79584;BME280;69053;57.338;18.700;2024-01-11T01:06:42;102073.53;;;6.41;59.78
79584;BME280;69053;57.338;18.700;2024-01-11T01:09:43;102087.47;;;6.46;59.32
79584;BME280;69053;57.338;18.700;2024-01-11T01:12:44;102084.84;;;6.54;59.04
79584;BME280;69053;57.338;18.700;2024-01-11T01:15:44;102084.69;;;6.55;58.98
79584;BME280;69053;57.338;18.700;2024-01-11T01:18:45;102081.81;;;6.57;58.90
79584;BME280;69053;57.338;18.700;2024-01-11T01:21:45;102088.59;;;6.61;58.68
79584;BME280;69053;57.338;18.700;2024-01-11T01:24:45;102084.97;;;6.52;59.09
79584;BME280;69053;57.338;18.700;2024-01-11T01:27:46;102084.03;;;6.62;58.83
79584;BME280;69053;57.338;18.700;2024-01-11T01:30:46;102068.13;;;6.59;58.56
79584;BME280;69053;57.338;18.700;2024-01-11T01:33:47;102061.88;;;6.40;59.08
79584;BME280;69053;57.338;18.700;2024-01-11T01:36:47;102067.94;;;6.60;58.89
79584;BME280;69053;57.338;18.700;2024-01-11T01:39:48;102069.72;;;6.69;58.54
79584;BME280;69053;57.338;18.700;2024-01-11T01:42:48;102070.41;;;6.71;58.54
79584;BME280;69053;57.338;18.700;2024-01-11T01:45:49;102068.69;;;6.70;58.52
79584;BME280;69053;57.338;18.700;2024-01-11T01:48:51;102076.13;;;6.68;58.36
79584;BME280;69053;57.338;18.700;2024-01-11T01:51:53;102060.31;;;6.55;58.82
79584;BME280;69053;57.338;18.700;2024-01-11T01:54:55;102060.47;;;6.54;58.92
79584;BME280;69053;57.338;18.700;2024-01-11T01:57:57;102070.50;;;6.62;58.74
79584;BME280;69053;57.338;18.700;2024-01-11T02:00:58;102060.47;;;6.54;58.73
79584;BME280;69053;57.338;18.700;2024-01-11T02:03:59;102061.00;;;6.57;58.74
79584;BME280;69053;57.338;18.700;2024-01-11T02:07:00;102058.97;;;6.60;59.04
79584;BME280;69053;57.338;18.700;2024-01-11T02:10:02;102064.25;;;6.61;58.86
79584;BME280;69053;57.338;18.700;2024-01-11T02:13:03;102068.31;;;6.65;58.88
79584;BME280;69053;57.338;18.700;2024-01-11T02:16:04;102072.50;;;6.60;59.11
79584;BME280;69053;57.338;18.700;2024-01-11T02:19:06;102081.13;;;6.55;59.13
79584;BME280;69053;57.338;18.700;2024-01-11T02:22:13;102068.34;;;6.47;59.66
79584;BME280;69053;57.338;18.700;2024-01-11T02:25:15;102070.59;;;6.52;59.30
79584;BME280;69053;57.338;18.700;2024-01-11T02:28:17;102055.81;;;6.46;59.74
79584;BME280;69053;57.338;18.700;2024-01-11T02:31:18;102069.97;;;6.58;59.27
79584;BME280;69053;57.338;18.700;2024-01-11T02:34:18;102054.38;;;6.52;59.12
79584;BME280;69053;57.338;18.700;2024-01-11T02:37:19;102057.44;;;6.57;59.50
79584;BME280;69053;57.338;18.700;2024-01-11T02:40:19;102052.97;;;6.48;59.78
79584;BME280;69053;57.338;18.700;2024-01-11T02:43:20;102059.50;;;6.63;59.16
79584;BME280;69053;57.338;18.700;2024-01-11T02:46:21;102052.97;;;6.48;59.55
79584;BME280;69053;57.338;18.700;2024-01-11T02:49:21;102057.44;;;6.39;60.05
79584;BME280;69053;57.338;18.700;2024-01-11T02:52:25;102041.06;;;6.41;60.00
79584;BME280;69053;57.338;18.700;2024-01-11T02:55:25;102048.06;;;6.51;59.58
79584;BME280;69053;57.338;18.700;2024-01-11T02:58:25;102043.06;;;6.38;60.01
79584;BME280;69053;57.338;18.700;2024-01-11T03:01:26;102043.94;;;6.21;60.79
79584;BME280;69053;57.338;18.700;2024-01-11T03:04:27;102035.06;;;6.11;60.90
79584;BME280;69053;57.338;18.700;2024-01-11T03:07:27;102028.72;;;6.02;61.50
79584;BME280;69053;57.338;18.700;2024-01-11T03:10:28;102009.09;;;6.00;61.71
79584;BME280;69053;57.338;18.700;2024-01-11T03:13:29;102020.06;;;5.98;61.43
79584;BME280;69053;57.338;18.700;2024-01-11T03:16:29;102009.78;;;6.02;61.76
79584;BME280;69053;57.338;18.700;2024-01-11T03:19:30;102004.25;;;6.12;61.33
79584;BME280;69053;57.338;18.700;2024-01-11T03:22:30;102002.34;;;6.04;61.77
79584;BME280;69053;57.338;18.700;2024-01-11T03:25:31;102005.59;;;6.08;61.36
79584;BME280;69053;57.338;18.700;2024-01-11T03:28:31;102012.66;;;5.91;62.31
79584;BME280;69053;57.338;18.700;2024-01-11T03:31:32;102001.03;;;6.08;61.60
79584;BME280;69053;57.338;18.700;2024-01-11T03:34:32;102002.38;;;5.94;62.27
79584;BME280;69053;57.338;18.700;2024-01-11T03:37:32;102000.03;;;6.09;61.88
79584;BME280;69053;57.338;18.700;2024-01-11T03:40:33;102006.59;;;6.07;61.74
79584;BME280;69053;57.338;18.700;2024-01-11T03:43:33;101997.78;;;6.05;62.02
79584;BME280;69053;57.338;18.700;2024-01-11T03:46:34;102010.78;;;6.01;61.76
79584;BME280;69053;57.338;18.700;2024-01-11T03:49:34;102012.63;;;6.00;61.93
79584;BME280;69053;57.338;18.700;2024-01-11T03:52:35;102003.97;;;5.97;61.93
79584;BME280;69053;57.338;18.700;2024-01-11T03:55:35;101988.75;;;5.96;62.31
79584;BME280;69053;57.338;18.700;2024-01-11T03:58:36;101997.41;;;5.99;61.95
79584;BME280;69053;57.338;18.700;2024-01-11T04:01:40;102006.94;;;5.94;62.00
79584;BME280;69053;57.338;18.700;2024-01-11T04:04:41;101996.56;;;5.99;62.25
79584;BME280;69053;57.338;18.700;2024-01-11T04:07:41;102002.38;;;5.94;62.17
79584;BME280;69053;57.338;18.700;2024-01-11T04:10:42;102006.13;;;5.93;62.21
79584;BME280;69053;57.338;18.700;2024-01-11T04:13:42;101995.06;;;5.87;62.75
79584;BME280;69053;57.338;18.700;2024-01-11T04:16:43;101996.13;;;5.94;62.31
79584;BME280;69053;57.338;18.700;2024-01-11T04:19:44;101995.44;;;5.92;62.52
79584;BME280;69053;57.338;18.700;2024-01-11T04:22:44;101993.03;;;5.89;62.71
79584;BME280;69053;57.338;18.700;2024-01-11T04:25:45;101987.09;;;5.85;62.99
79584;BME280;69053;57.338;18.700;2024-01-11T04:28:45;101989.44;;;5.98;62.88
79584;BME280;69053;57.338;18.700;2024-01-11T04:31:46;101982.56;;;6.04;62.51
79584;BME280;69053;57.338;18.700;2024-01-11T04:34:47;101991.63;;;6.12;62.56
79584;BME280;69053;57.338;18.700;2024-01-11T04:37:47;101993.53;;;6.20;62.42
79584;BME280;69053;57.338;18.700;2024-01-11T04:40:47;101996.38;;;6.18;62.26
79584;BME280;69053;57.338;18.700;2024-01-11T04:43:48;101986.81;;;6.24;62.34
79584;BME280;69053;57.338;18.700;2024-01-11T04:46:48;101979.91;;;6.30;62.39
79584;BME280;69053;57.338;18.700;2024-01-11T04:49:49;101988.19;;;6.28;62.65
79584;BME280;69053;57.338;18.700;2024-01-11T04:52:49;101987.13;;;6.21;62.46
79584;BME280;69053;57.338;18.700;2024-01-11T04:55:49;101996.84;;;6.32;62.45
79584;BME280;69053;57.338;18.700;2024-01-11T04:58:50;101996.38;;;6.36;62.56
79584;BME280;69053;57.338;18.700;2024-01-11T05:01:50;102001.22;;;6.51;62.18
79584;BME280;69053;57.338;18.700;2024-01-11T05:04:51;101993.56;;;6.46;62.28
79584;BME280;69053;57.338;18.700;2024-01-11T05:07:51;101998.81;;;6.48;62.12
79584;BME280;69053;57.338;18.700;2024-01-11T05:10:52;101994.75;;;6.44;62.56
79584;BME280;69053;57.338;18.700;2024-01-11T05:13:52;101988.06;;;6.56;62.24
79584;BME280;69053;57.338;18.700;2024-01-11T05:16:52;102003.19;;;6.67;61.93
79584;BME280;69053;57.338;18.700;2024-01-11T05:19:53;101999.91;;;6.81;61.34
79584;BME280;69053;57.338;18.700;2024-01-11T05:22:53;101990.53;;;6.67;61.63
79584;BME280;69053;57.338;18.700;2024-01-11T05:25:54;101988.34;;;6.71;61.65
79584;BME280;69053;57.338;18.700;2024-01-11T05:28:55;102004.81;;;6.86;61.48
79584;BME280;69053;57.338;18.700;2024-01-11T05:31:55;102000.38;;;6.76;61.44
79584;BME280;69053;57.338;18.700;2024-01-11T05:34:55;101994.56;;;6.89;61.17
79584;BME280;69053;57.338;18.700;2024-01-11T05:37:56;101996.69;;;6.86;61.25
79584;BME280;69053;57.338;18.700;2024-01-11T05:40:56;102003.38;;;6.91;60.98
79584;BME280;69053;57.338;18.700;2024-01-11T05:43:57;101990.81;;;6.90;61.24
79584;BME280;69053;57.338;18.700;2024-01-11T05:46:57;101992.03;;;6.96;60.71
79584;BME280;69053;57.338;18.700;2024-01-11T05:49:58;101993.53;;;6.90;60.99
79584;BME280;69053;57.338;18.700;2024-01-11T05:52:58;101994.06;;;6.94;60.84
79584;BME280;69053;57.338;18.700;2024-01-11T05:55:59;101992.22;;;6.94;61.18
79584;BME280;69053;57.338;18.700;2024-01-11T05:58:59;102000.13;;;6.88;60.91
79584;BME280;69053;57.338;18.700;2024-01-11T06:01:59;101992.53;;;6.91;61.00
79584;BME280;69053;57.338;18.700;2024-01-11T06:05:01;101992.69;;;6.90;61.19
79584;BME280;69053;57.338;18.700;2024-01-11T06:08:02;102005.91;;;6.93;60.89
79584;BME280;69053;57.338;18.700;2024-01-11T06:11:03;102001.22;;;7.03;60.64
79584;BME280;69053;57.338;18.700;2024-01-11T06:14:04;102000.50;;;7.01;60.93
79584;BME280;69053;57.338;18.700;2024-01-11T06:17:04;102005.94;;;7.01;61.10
79584;BME280;69053;57.338;18.700;2024-01-11T06:20:05;102008.84;;;7.00;60.82
79584;BME280;69053;57.338;18.700;2024-01-11T06:23:05;102018.44;;;6.94;60.83
79584;BME280;69053;57.338;18.700;2024-01-11T06:26:07;102013.06;;;7.02;60.51
79584;BME280;69053;57.338;18.700;2024-01-11T06:29:08;102014.25;;;7.00;60.95
79584;BME280;69053;57.338;18.700;2024-01-11T06:32:08;102018.00;;;7.07;60.70
79584;BME280;69053;57.338;18.700;2024-01-11T06:35:09;102018.84;;;7.07;60.76
79584;BME280;69053;57.338;18.700;2024-01-11T06:38:09;102030.53;;;7.08;60.43
79584;BME280;69053;57.338;18.700;2024-01-11T06:41:10;102029.16;;;7.04;60.72
79584;BME280;69053;57.338;18.700;2024-01-11T06:44:10;102044.56;;;7.03;60.46
79584;BME280;69053;57.338;18.700;2024-01-11T06:47:11;102048.97;;;7.04;60.74
79584;BME280;69053;57.338;18.700;2024-01-11T06:50:12;102053.53;;;7.04;60.56
79584;BME280;69053;57.338;18.700;2024-01-11T06:53:13;102066.13;;;7.13;60.46
79584;BME280;69053;57.338;18.700;2024-01-11T06:56:15;102060.44;;;7.24;60.14
79584;BME280;69053;57.338;18.700;2024-01-11T06:59:15;102063.25;;;7.14;60.48
79584;BME280;69053;57.338;18.700;2024-01-11T07:02:16;102086.00;;;7.22;60.58
79584;BME280;69053;57.338;18.700;2024-01-11T07:05:16;102082.13;;;7.24;60.33
79584;BME280;69053;57.338;18.700;2024-01-11T07:08:17;102088.59;;;7.31;60.04
79584;BME280;69053;57.338;18.700;2024-01-11T07:11:17;102090.63;;;7.29;59.72
79584;BME280;69053;57.338;18.700;2024-01-11T07:14:17;102084.00;;;7.32;59.65
79584;BME280;69053;57.338;18.700;2024-01-11T07:17:18;102087.22;;;7.27;59.98
79584;BME280;69053;57.338;18.700;2024-01-11T07:20:18;102084.00;;;7.32;60.36
79584;BME280;69053;57.338;18.700;2024-01-11T07:23:19;102086.41;;;7.35;59.93
79584;BME280;69053;57.338;18.700;2024-01-11T07:26:19;102085.19;;;7.29;59.88
79584;BME280;69053;57.338;18.700;2024-01-11T07:29:19;102091.78;;;7.27;59.99
79584;BME280;69053;57.338;18.700;2024-01-11T07:32:20;102096.81;;;7.22;60.03
79584;BME280;69053;57.338;18.700;2024-01-11T07:35:22;102106.19;;;7.27;60.17
79584;BME280;69053;57.338;18.700;2024-01-11T07:38:22;102100.19;;;7.16;60.25
79584;BME280;69053;57.338;18.700;2024-01-11T07:41:23;102106.00;;;7.21;59.92
79584;BME280;69053;57.338;18.700;2024-01-11T07:44:23;102100.97;;;7.08;60.66
79584;BME280;69053;57.338;18.700;2024-01-11T07:47:23;102112.88;;;7.15;60.34
79584;BME280;69053;57.338;18.700;2024-01-11T07:50:24;102102.75;;;7.17;60.70
79584;BME280;69053;57.338;18.700;2024-01-11T07:53:24;102095.09;;;7.12;60.72
79584;BME280;69053;57.338;18.700;2024-01-11T07:56:26;102096.09;;;7.11;60.80
79584;BME280;69053;57.338;18.700;2024-01-11T07:59:26;102103.22;;;7.12;60.91
79584;BME280;69053;57.338;18.700;2024-01-11T08:02:27;102103.22;;;7.12;60.69
79584;BME280;69053;57.338;18.700;2024-01-11T08:05:27;102110.13;;;7.07;60.94
79584;BME280;69053;57.338;18.700;2024-01-11T08:08:27;102112.34;;;7.11;60.56
79584;BME280;69053;57.338;18.700;2024-01-11T08:11:28;102107.44;;;7.07;60.77
79584;BME280;69053;57.338;18.700;2024-01-11T08:14:29;102104.00;;;7.05;60.91
79584;BME280;69053;57.338;18.700;2024-01-11T08:17:29;102110.28;;;7.05;61.22
79584;BME280;69053;57.338;18.700;2024-01-11T08:20:30;102113.31;;;7.02;61.02
79584;BME280;69053;57.338;18.700;2024-01-11T08:23:30;102127.00;;;7.01;61.12
79584;BME280;69053;57.338;18.700;2024-01-11T08:26:31;102136.31;;;6.98;61.18
79584;BME280;69053;57.338;18.700;2024-01-11T08:29:31;102143.41;;;6.99;61.40
79584;BME280;69053;57.338;18.700;2024-01-11T08:32:32;102145.91;;;6.92;61.59
79584;BME280;69053;57.338;18.700;2024-01-11T08:35:39;102148.00;;;6.99;61.62
79584;BME280;69053;57.338;18.700;2024-01-11T08:38:41;102146.50;;;7.04;61.47
79584;BME280;69053;57.338;18.700;2024-01-11T08:41:41;102147.25;;;7.14;61.21
79584;BME280;69053;57.338;18.700;2024-01-11T08:44:42;102148.31;;;7.22;61.00
79584;BME280;69053;57.338;18.700;2024-01-11T08:47:46;102156.78;;;7.19;61.01
79584;BME280;69053;57.338;18.700;2024-01-11T08:50:47;102154.53;;;7.14;61.26
79584;BME280;69053;57.338;18.700;2024-01-11T08:53:47;102149.06;;;7.06;61.28
79584;BME280;69053;57.338;18.700;2024-01-11T08:56:47;102169.97;;;6.95;61.50
79584;BME280;69053;57.338;18.700;2024-01-11T08:59:48;102181.44;;;6.89;61.61
79584;BME280;69053;57.338;18.700;2024-01-11T09:02:48;102172.16;;;6.92;61.68
79584;BME280;69053;57.338;18.700;2024-01-11T09:05:50;102182.28;;;6.90;61.97
79584;BME280;69053;57.338;18.700;2024-01-11T09:08:50;102181.88;;;7.03;61.49
79584;BME280;69053;57.338;18.700;2024-01-11T09:11:51;102181.28;;;7.09;61.21
79584;BME280;69053;57.338;18.700;2024-01-11T09:14:52;102187.06;;;7.14;61.11
79584;BME280;69053;57.338;18.700;2024-01-11T09:17:52;102191.16;;;7.18;60.90
79584;BME280;69053;57.338;18.700;2024-01-11T09:20:52;102192.72;;;7.21;60.99
79584;BME280;69053;57.338;18.700;2024-01-11T09:23:53;102198.19;;;7.29;60.38
79584;BME280;69053;57.338;18.700;2024-01-11T09:26:53;102205.00;;;7.33;60.55
79584;BME280;69053;57.338;18.700;2024-01-11T09:29:54;102215.31;;;7.29;60.25
79584;BME280;69053;57.338;18.700;2024-01-11T09:32:55;102221.63;;;7.38;60.43
79584;BME280;69053;57.338;18.700;2024-01-11T09:35:55;102226.16;;;7.29;60.56
79584;BME280;69053;57.338;18.700;2024-01-11T09:38:56;102220.94;;;7.36;59.75
79584;BME280;69053;57.338;18.700;2024-01-11T09:42:08;102230.31;;;7.42;59.66
79584;BME280;69053;57.338;18.700;2024-01-11T09:45:16;102224.56;;;7.45;59.03
79584;BME280;69053;57.338;18.700;2024-01-11T09:48:17;102236.63;;;7.50;58.65
79584;BME280;69053;57.338;18.700;2024-01-11T09:51:20;102229.72;;;7.56;58.60
79584;BME280;69053;57.338;18.700;2024-01-11T09:54:21;102244.16;;;7.57;58.00
79584;BME280;69053;57.338;18.700;2024-01-11T09:57:24;102232.66;;;7.63;57.44
79584;BME280;69053;57.338;18.700;2024-01-11T10:00:27;102232.50;;;7.64;56.82
79584;BME280;69053;57.338;18.700;2024-01-11T10:03:28;102243.19;;;7.66;56.61
79584;BME280;69053;57.338;18.700;2024-01-11T10:06:32;102232.97;;;7.60;55.82
79584;BME280;69053;57.338;18.700;2024-01-11T10:09:34;102250.41;;;7.57;55.50
79584;BME280;69053;57.338;18.700;2024-01-11T10:12:36;102256.25;;;7.44;55.12
79584;BME280;69053;57.338;18.700;2024-01-11T10:15:36;102245.13;;;7.29;55.29
79584;BME280;69053;57.338;18.700;2024-01-11T10:18:37;102251.31;;;7.22;54.58
79584;BME280;69053;57.338;18.700;2024-01-11T10:21:38;102249.50;;;7.30;54.09
79584;BME280;69053;57.338;18.700;2024-01-11T10:24:41;102252.94;;;7.32;54.40
79584;BME280;69053;57.338;18.700;2024-01-11T10:27:43;102257.59;;;7.22;53.09
79584;BME280;69053;57.338;18.700;2024-01-11T10:30:47;102250.63;;;7.20;52.98
79584;BME280;69053;57.338;18.700;2024-01-11T10:33:48;102260.22;;;7.14;52.56
79584;BME280;69053;57.338;18.700;2024-01-11T10:36:50;102269.81;;;7.26;52.35
79584;BME280;69053;57.338;18.700;2024-01-11T10:39:51;102275.66;;;7.13;51.78
79584;BME280;69053;57.338;18.700;2024-01-11T10:42:53;102265.25;;;6.91;50.93
79584;BME280;69053;57.338;18.700;2024-01-11T10:45:56;102278.72;;;6.83;50.92
79584;BME280;69053;57.338;18.700;2024-01-11T10:49:01;102277.41;;;6.69;50.98
79584;BME280;69053;57.338;18.700;2024-01-11T10:52:05;102267.47;;;6.60;50.88
79584;BME280;69053;57.338;18.700;2024-01-11T10:55:08;102269.63;;;6.56;50.81
79584;BME280;69053;57.338;18.700;2024-01-11T10:58:09;102270.66;;;6.73;50.75
79584;BME280;69053;57.338;18.700;2024-01-11T11:01:12;102275.97;;;6.65;50.75
79584;BME280;69053;57.338;18.700;2024-01-11T11:04:13;102282.09;;;6.67;50.42
79584;BME280;69053;57.338;18.700;2024-01-11T11:07:15;102290.22;;;6.67;50.64
79584;BME280;69053;57.338;18.700;2024-01-11T11:10:21;102279.06;;;6.52;50.20
79584;BME280;69053;57.338;18.700;2024-01-11T11:13:22;102292.63;;;6.70;50.15
79584;BME280;69053;57.338;18.700;2024-01-11T11:16:23;102300.59;;;6.71;49.77
79584;BME280;69053;57.338;18.700;2024-01-11T11:19:24;102302.56;;;6.79;49.19
79584;BME280;69053;57.338;18.700;2024-01-11T11:22:27;102313.00;;;6.74;48.90
79584;BME280;69053;57.338;18.700;2024-01-11T11:25:29;102312.75;;;6.67;48.04
79584;BME280;69053;57.338;18.700;2024-01-11T11:28:31;102319.94;;;6.76;48.45
79584;BME280;69053;57.338;18.700;2024-01-11T11:31:42;102313.94;;;6.83;48.39
79584;BME280;69053;57.338;18.700;2024-01-11T11:34:46;102322.75;;;6.85;48.11
79584;BME280;69053;57.338;18.700;2024-01-11T11:37:47;102324.38;;;6.78;47.93
79584;BME280;69053;57.338;18.700;2024-01-11T11:40:51;102332.19;;;6.81;47.67
79584;BME280;69053;57.338;18.700;2024-01-11T11:43:52;102342.69;;;6.66;47.12
79584;BME280;69053;57.338;18.700;2024-01-11T11:46:53;102344.13;;;6.60;46.49
79584;BME280;69053;57.338;18.700;2024-01-11T11:53:10;102366.53;;;6.80;46.80
79584;BME280;69053;57.338;18.700;2024-01-11T11:56:11;102379.34;;;6.88;46.86
79584;BME280;69053;57.338;18.700;2024-01-11T11:59:12;102386.06;;;6.84;47.06
79584;BME280;69053;57.338;18.700;2024-01-11T12:02:16;102390.22;;;6.78;47.28
79584;BME280;69053;57.338;18.700;2024-01-11T12:05:17;102382.75;;;6.90;47.33
79584;BME280;69053;57.338;18.700;2024-01-11T12:08:18;102390.88;;;6.90;47.61
79584;BME280;69053;57.338;18.700;2024-01-11T12:11:20;102391.53;;;7.02;48.05
79584;BME280;69053;57.338;18.700;2024-01-11T12:14:21;102398.84;;;6.91;47.96
79584;BME280;69053;57.338;18.700;2024-01-11T12:17:21;102416.09;;;6.90;47.64
79584;BME280;69053;57.338;18.700;2024-01-11T12:20:22;102400.38;;;6.66;48.41
79584;BME280;69053;57.338;18.700;2024-01-11T12:23:22;102405.94;;;6.65;48.45
79584;BME280;69053;57.338;18.700;2024-01-11T12:26:23;102402.94;;;6.68;48.57
79584;BME280;69053;57.338;18.700;2024-01-11T12:29:23;102406.72;;;6.85;48.70
79584;BME280;69053;57.338;18.700;2024-01-11T12:32:24;102405.00;;;6.84;48.53
79584;BME280;69053;57.338;18.700;2024-01-11T12:35:24;102409.91;;;6.70;48.68
79584;BME280;69053;57.338;18.700;2024-01-11T12:38:25;102415.44;;;6.41;49.46
79584;BME280;69053;57.338;18.700;2024-01-11T12:41:25;102417.16;;;6.42;50.20
79584;BME280;69053;57.338;18.700;2024-01-11T12:44:26;102421.31;;;6.36;50.25
79584;BME280;69053;57.338;18.700;2024-01-11T12:47:27;102431.72;;;6.31;50.57
79584;BME280;69053;57.338;18.700;2024-01-11T12:50:28;102439.84;;;6.12;50.58
79584;BME280;69053;57.338;18.700;2024-01-11T12:53:29;102444.28;;;6.13;50.64
79584;BME280;69053;57.338;18.700;2024-01-11T12:56:29;102444.59;;;6.00;50.68
79584;BME280;69053;57.338;18.700;2024-01-11T12:59:30;102451.13;;;6.07;50.66
79584;BME280;69053;57.338;18.700;2024-01-11T13:02:30;102451.22;;;6.15;50.36
79584;BME280;69053;57.338;18.700;2024-01-11T13:05:32;102447.69;;;6.15;50.68
79584;BME280;69053;57.338;18.700;2024-01-11T13:08:35;102443.00;;;6.07;50.29
79584;BME280;69053;57.338;18.700;2024-01-11T13:11:42;102459.38;;;6.06;50.63
79584;BME280;69053;57.338;18.700;2024-01-11T13:14:42;102457.53;;;6.06;50.76
79584;BME280;69053;57.338;18.700;2024-01-11T13:17:43;102459.09;;;5.99;50.58
79584;BME280;69053;57.338;18.700;2024-01-11T13:20:43;102465.63;;;5.96;50.66
79584;BME280;69053;57.338;18.700;2024-01-11T13:23:44;102466.44;;;5.77;50.02
79584;BME280;69053;57.338;18.700;2024-01-11T13:26:44;102480.25;;;5.84;50.20
79584;BME280;69053;57.338;18.700;2024-01-11T13:29:45;102476.97;;;5.71;49.60
79584;BME280;69053;57.338;18.700;2024-01-11T13:32:45;102487.38;;;5.66;49.69
79584;BME280;69053;57.338;18.700;2024-01-11T13:35:46;102493.16;;;5.51;49.77
79584;BME280;69053;57.338;18.700;2024-01-11T13:38:46;102501.84;;;5.55;50.00
79584;BME280;69053;57.338;18.700;2024-01-11T13:41:47;102509.38;;;5.51;49.95
79584;BME280;69053;57.338;18.700;2024-01-11T13:44:47;102519.56;;;5.28;49.68
79584;BME280;69053;57.338;18.700;2024-01-11T13:47:48;102513.41;;;5.16;50.08
79584;BME280;69053;57.338;18.700;2024-01-11T13:50:48;102503.69;;;5.04;49.50
79584;BME280;69053;57.338;18.700;2024-01-11T13:53:49;102524.34;;;4.84;49.73
79584;BME280;69053;57.338;18.700;2024-01-11T13:56:50;102529.16;;;4.80;49.68
79584;BME280;69053;57.338;18.700;2024-01-11T13:59:52;102545.75;;;4.76;49.27
79584;BME280;69053;57.338;18.700;2024-01-11T14:02:52;102551.88;;;4.57;49.63
79584;BME280;69053;57.338;18.700;2024-01-11T14:05:53;102556.34;;;4.46;50.09
79584;BME280;69053;57.338;18.700;2024-01-11T14:08:53;102569.13;;;4.44;49.50
79584;BME280;69053;57.338;18.700;2024-01-11T14:11:54;102570.09;;;4.43;49.82
79584;BME280;69053;57.338;18.700;2024-01-11T14:14:54;102575.91;;;4.39;49.66
79584;BME280;69053;57.338;18.700;2024-01-11T14:17:54;102580.16;;;4.41;49.42
79584;BME280;69053;57.338;18.700;2024-01-11T14:20:55;102585.53;;;4.20;49.70
79584;BME280;69053;57.338;18.700;2024-01-11T14:23:55;102593.38;;;4.23;49.46
79584;BME280;69053;57.338;18.700;2024-01-11T14:26:56;102600.53;;;4.02;49.52
79584;BME280;69053;57.338;18.700;2024-01-11T14:29:56;102591.84;;;4.09;49.66
79584;BME280;69053;57.338;18.700;2024-01-11T14:32:57;102601.78;;;3.98;49.83
79584;BME280;69053;57.338;18.700;2024-01-11T14:35:57;102612.34;;;3.78;49.63
79584;BME280;69053;57.338;18.700;2024-01-11T14:38:58;102611.00;;;3.84;49.77
79584;BME280;69053;57.338;18.700;2024-01-11T14:41:58;102619.59;;;3.78;49.49
79584;BME280;69053;57.338;18.700;2024-01-11T14:44:58;102621.56;;;3.75;49.43
79584;BME280;69053;57.338;18.700;2024-01-11T14:47:59;102615.19;;;3.77;49.18
79584;BME280;69053;57.338;18.700;2024-01-11T14:50:59;102615.06;;;3.67;49.38
79584;BME280;69053;57.338;18.700;2024-01-11T14:54:00;102620.34;;;3.57;48.88
79584;BME280;69053;57.338;18.700;2024-01-11T14:57:00;102634.56;;;3.48;49.20
79584;BME280;69053;57.338;18.700;2024-01-11T15:00:01;102638.47;;;3.44;49.07
79584;BME280;69053;57.338;18.700;2024-01-11T15:03:01;102643.75;;;3.34;49.43
79584;BME280;69053;57.338;18.700;2024-01-11T15:06:02;102657.94;;;3.36;49.09
79584;BME280;69053;57.338;18.700;2024-01-11T15:09:03;102648.00;;;3.36;49.22
79584;BME280;69053;57.338;18.700;2024-01-11T15:12:05;102657.94;;;3.36;49.17
79584;BME280;69053;57.338;18.700;2024-01-11T15:15:06;102642.47;;;3.15;49.11
79584;BME280;69053;57.338;18.700;2024-01-11T15:18:06;102647.25;;;3.23;48.94
79584;BME280;69053;57.338;18.700;2024-01-11T15:21:07;102658.41;;;3.18;49.15
79584;BME280;69053;57.338;18.700;2024-01-11T15:24:07;102660.88;;;3.22;49.00
79584;BME280;69053;57.338;18.700;2024-01-11T15:27:08;102663.75;;;3.07;49.34
79584;BME280;69053;57.338;18.700;2024-01-11T15:30:09;102672.84;;;3.06;49.17
79584;BME280;69053;57.338;18.700;2024-01-11T15:33:12;102674.41;;;2.97;49.42
79584;BME280;69053;57.338;18.700;2024-01-11T15:36:13;102679.03;;;2.95;49.47
79584;BME280;69053;57.338;18.700;2024-01-11T15:39:13;102664.59;;;2.96;49.62
79584;BME280;69053;57.338;18.700;2024-01-11T15:42:14;102678.50;;;2.90;49.54
79584;BME280;69053;57.338;18.700;2024-01-11T15:45:14;102679.44;;;2.78;49.85
79584;BME280;69053;57.338;18.700;2024-01-11T15:48:15;102683.13;;;2.77;49.84